Terminal Aerodrome Forecast
Issued by NWS Wilmington, OH

Home | Current Version | Previous Version | Text Only | Print | Product List | Glossary On
Versions: 1 2 3 4 5 6 7 8 9 10 11 12 13 14 15 16 17 18 19 20 21 22 23
000
FTUS41 KILN 261900 AAA
TAFCMH
TAF AMD
KCMH 261937Z 2620/2718 35005KT P6SM BKN035
      TEMPO 2620/2623 BKN025
     FM270000 35005KT P6SM SCT035 BKN250
     FM270400 34004KT P6SM OVC025
     FM271400 31010KT P6SM OVC025=

USA.gov is the U.S. government's official web portal to all federal, state and local government web resources and services.